sensor_id;sensor_type;location;lat;lon;timestamp;P1;durP1;ratioP1;P2;durP2;ratioP2
10154;SDS011;5118;48.570;7.916;2023-04-01T00:01:11;2.27;;;1.30;;
10154;SDS011;5118;48.570;7.916;2023-04-01T00:03:41;3.53;;;1.30;;
10154;SDS011;5118;48.570;7.916;2023-04-01T00:06:11;2.77;;;1.40;;
10154;SDS011;5118;48.570;7.916;2023-04-01T00:08:41;3.67;;;1.10;;
10154;SDS011;5118;48.570;7.916;2023-04-01T00:11:12;3.43;;;1.30;;
10154;SDS011;5118;48.570;7.916;2023-04-01T00:13:40;2.47;;;1.30;;
10154;SDS011;5118;48.570;7.916;2023-04-01T00:16:09;3.00;;;1.60;;
10154;SDS011;5118;48.570;7.916;2023-04-01T00:18:48;2.97;;;1.20;;
10154;SDS011;5118;48.570;7.916;2023-04-01T00:21:17;1.93;;;1.00;;
10154;SDS011;5118;48.570;7.916;2023-04-01T00:23:48;1.70;;;1.07;;
10154;SDS011;5118;48.570;7.916;2023-04-01T00:26:17;2.50;;;1.10;;
10154;SDS011;5118;48.570;7.916;2023-04-01T00:28:48;2.93;;;1.10;;
10154;SDS011;5118;48.570;7.916;2023-04-01T00:31:16;4.63;;;1.27;;
10154;SDS011;5118;48.570;7.916;2023-04-01T00:33:45;2.00;;;1.20;;
10154;SDS011;5118;48.570;7.916;2023-04-01T00:36:14;3.43;;;1.17;;
10154;SDS011;5118;48.570;7.916;2023-04-01T00:38:43;1.73;;;1.03;;
10154;SDS011;5118;48.570;7.916;2023-04-01T00:41:14;1.80;;;0.80;;
10154;SDS011;5118;48.570;7.916;2023-04-01T00:43:44;1.40;;;0.80;;
10154;SDS011;5118;48.570;7.916;2023-04-01T00:46:13;0.87;;;0.80;;
10154;SDS011;5118;48.570;7.916;2023-04-01T00:48:43;0.77;;;0.63;;
10154;SDS011;5118;48.570;7.916;2023-04-01T00:51:16;2.03;;;0.80;;
10154;SDS011;5118;48.570;7.916;2023-04-01T00:53:48;1.60;;;0.53;;
10154;SDS011;5118;48.570;7.916;2023-04-01T00:56:22;0.60;;;0.50;;
10154;SDS011;5118;48.570;7.916;2023-04-01T00:58:56;0.77;;;0.60;;
10154;SDS011;5118;48.570;7.916;2023-04-01T01:01:29;0.87;;;0.50;;
10154;SDS011;5118;48.570;7.916;2023-04-01T01:03:58;1.27;;;0.40;;
10154;SDS011;5118;48.570;7.916;2023-04-01T01:06:32;0.50;;;0.50;;
10154;SDS011;5118;48.570;7.916;2023-04-01T01:09:12;0.30;;;0.30;;
10154;SDS011;5118;48.570;7.916;2023-04-01T01:11:54;0.20;;;0.20;;
10154;SDS011;5118;48.570;7.916;2023-04-01T01:14:31;0.80;;;0.60;;
10154;SDS011;5118;48.570;7.916;2023-04-01T01:17:09;1.23;;;0.53;;
10154;SDS011;5118;48.570;7.916;2023-04-01T01:22:55;0.27;;;0.20;;
10154;SDS011;5118;48.570;7.916;2023-04-01T01:25:35;0.20;;;0.20;;
10154;SDS011;5118;48.570;7.916;2023-04-01T01:28:19;0.20;;;0.20;;
10154;SDS011;5118;48.570;7.916;2023-04-01T01:31:00;0.40;;;0.30;;
10154;SDS011;5118;48.570;7.916;2023-04-01T01:33:36;0.10;;;0.10;;
10154;SDS011;5118;48.570;7.916;2023-04-01T01:36:17;0.30;;;0.30;;
10154;SDS011;5118;48.570;7.916;2023-04-01T01:38:48;0.30;;;0.30;;
10154;SDS011;5118;48.570;7.916;2023-04-01T01:41:18;0.87;;;0.47;;
10154;SDS011;5118;48.570;7.916;2023-04-01T01:43:50;0.90;;;0.37;;
10154;SDS011;5118;48.570;7.916;2023-04-01T01:46:22;0.43;;;0.30;;
10154;SDS011;5118;48.570;7.916;2023-04-01T01:48:53;1.13;;;0.60;;
10154;SDS011;5118;48.570;7.916;2023-04-01T01:51:24;1.43;;;0.70;;
10154;SDS011;5118;48.570;7.916;2023-04-01T01:53:55;0.90;;;0.30;;
10154;SDS011;5118;48.570;7.916;2023-04-01T01:56:25;1.87;;;0.50;;
10154;SDS011;5118;48.570;7.916;2023-04-01T01:58:56;0.50;;;0.50;;
10154;SDS011;5118;48.570;7.916;2023-04-01T02:01:28;1.00;;;0.60;;
10154;SDS011;5118;48.570;7.916;2023-04-01T02:04:07;0.83;;;0.60;;
10154;SDS011;5118;48.570;7.916;2023-04-01T02:06:38;0.73;;;0.70;;
10154;SDS011;5118;48.570;7.916;2023-04-01T02:09:10;0.63;;;0.60;;
10154;SDS011;5118;48.570;7.916;2023-04-01T02:11:40;1.27;;;0.60;;
10154;SDS011;5118;48.570;7.916;2023-04-01T02:14:13;1.37;;;0.90;;
10154;SDS011;5118;48.570;7.916;2023-04-01T02:16:46;1.77;;;0.90;;
10154;SDS011;5118;48.570;7.916;2023-04-01T02:19:19;0.97;;;0.70;;
10154;SDS011;5118;48.570;7.916;2023-04-01T02:21:53;1.47;;;1.00;;
10154;SDS011;5118;48.570;7.916;2023-04-01T02:24:25;1.97;;;1.00;;
10154;SDS011;5118;48.570;7.916;2023-04-01T02:26:55;3.20;;;0.70;;
10154;SDS011;5118;48.570;7.916;2023-04-01T02:29:24;0.80;;;0.80;;
10154;SDS011;5118;48.570;7.916;2023-04-01T02:31:53;2.57;;;0.80;;
10154;SDS011;5118;48.570;7.916;2023-04-01T02:34:23;3.93;;;0.87;;
10154;SDS011;5118;48.570;7.916;2023-04-01T02:36:53;1.23;;;0.90;;
10154;SDS011;5118;48.570;7.916;2023-04-01T02:39:24;2.97;;;0.83;;
10154;SDS011;5118;48.570;7.916;2023-04-01T02:41:53;0.87;;;0.80;;
10154;SDS011;5118;48.570;7.916;2023-04-01T02:44:21;1.47;;;0.70;;
10154;SDS011;5118;48.570;7.916;2023-04-01T02:46:49;1.67;;;0.97;;
10154;SDS011;5118;48.570;7.916;2023-04-01T02:49:19;0.83;;;0.80;;
10154;SDS011;5118;48.570;7.916;2023-04-01T02:51:47;5.00;;;1.40;;
10154;SDS011;5118;48.570;7.916;2023-04-01T02:54:17;2.07;;;1.00;;
10154;SDS011;5118;48.570;7.916;2023-04-01T02:56:45;3.13;;;1.30;;
10154;SDS011;5118;48.570;7.916;2023-04-01T02:59:14;3.67;;;1.30;;
10154;SDS011;5118;48.570;7.916;2023-04-01T03:01:42;3.97;;;1.30;;
10154;SDS011;5118;48.570;7.916;2023-04-01T03:04:10;4.60;;;1.50;;
10154;SDS011;5118;48.570;7.916;2023-04-01T03:06:39;2.63;;;1.00;;
10154;SDS011;5118;48.570;7.916;2023-04-01T03:09:07;3.60;;;1.40;;
10154;SDS011;5118;48.570;7.916;2023-04-01T03:11:37;3.40;;;1.50;;
10154;SDS011;5118;48.570;7.916;2023-04-01T03:14:05;3.60;;;1.43;;
10154;SDS011;5118;48.570;7.916;2023-04-01T03:16:34;2.27;;;1.20;;
10154;SDS011;5118;48.570;7.916;2023-04-01T03:19:02;4.17;;;1.40;;
10154;SDS011;5118;48.570;7.916;2023-04-01T03:21:30;4.87;;;1.50;;
10154;SDS011;5118;48.570;7.916;2023-04-01T03:24:00;2.43;;;1.33;;
10154;SDS011;5118;48.570;7.916;2023-04-01T03:26:28;5.17;;;1.40;;
10154;SDS011;5118;48.570;7.916;2023-04-01T03:28:58;4.60;;;1.60;;
10154;SDS011;5118;48.570;7.916;2023-04-01T03:31:27;4.27;;;1.70;;
10154;SDS011;5118;48.570;7.916;2023-04-01T03:33:56;6.50;;;1.97;;
10154;SDS011;5118;48.570;7.916;2023-04-01T03:36:25;5.10;;;1.90;;
10154;SDS011;5118;48.570;7.916;2023-04-01T03:38:53;5.47;;;1.90;;
10154;SDS011;5118;48.570;7.916;2023-04-01T03:41:32;3.87;;;1.60;;
10154;SDS011;5118;48.570;7.916;2023-04-01T03:44:04;7.63;;;1.97;;
10154;SDS011;5118;48.570;7.916;2023-04-01T03:46:32;5.93;;;1.60;;
10154;SDS011;5118;48.570;7.916;2023-04-01T03:49:01;4.00;;;1.40;;
10154;SDS011;5118;48.570;7.916;2023-04-01T03:51:29;4.37;;;1.73;;
10154;SDS011;5118;48.570;7.916;2023-04-01T03:53:57;3.77;;;1.43;;
10154;SDS011;5118;48.570;7.916;2023-04-01T03:56:25;3.97;;;1.60;;
10154;SDS011;5118;48.570;7.916;2023-04-01T03:58:54;3.27;;;1.50;;
10154;SDS011;5118;48.570;7.916;2023-04-01T04:01:24;4.50;;;1.30;;
10154;SDS011;5118;48.570;7.916;2023-04-01T04:03:54;4.13;;;1.40;;
10154;SDS011;5118;48.570;7.916;2023-04-01T04:06:23;2.57;;;1.07;;
10154;SDS011;5118;48.570;7.916;2023-04-01T04:08:53;2.50;;;1.37;;
10154;SDS011;5118;48.570;7.916;2023-04-01T04:11:21;3.53;;;1.30;;
10154;SDS011;5118;48.570;7.916;2023-04-01T04:13:51;3.87;;;1.30;;
10154;SDS011;5118;48.570;7.916;2023-04-01T04:16:23;3.47;;;1.10;;
10154;SDS011;5118;48.570;7.916;2023-04-01T04:18:58;1.23;;;0.87;;
10154;SDS011;5118;48.570;7.916;2023-04-01T04:21:26;1.37;;;0.90;;
10154;SDS011;5118;48.570;7.916;2023-04-01T04:23:55;1.37;;;0.70;;
10154;SDS011;5118;48.570;7.916;2023-04-01T04:26:24;0.87;;;0.40;;
10154;SDS011;5118;48.570;7.916;2023-04-01T04:28:57;1.10;;;0.63;;
10154;SDS011;5118;48.570;7.916;2023-04-01T04:31:27;3.43;;;0.60;;
10154;SDS011;5118;48.570;7.916;2023-04-01T04:33:59;0.80;;;0.67;;
10154;SDS011;5118;48.570;7.916;2023-04-01T04:36:32;0.60;;;0.60;;
10154;SDS011;5118;48.570;7.916;2023-04-01T04:39:00;0.57;;;0.40;;
10154;SDS011;5118;48.570;7.916;2023-04-01T04:41:31;1.07;;;0.50;;
10154;SDS011;5118;48.570;7.916;2023-04-01T04:44:03;0.83;;;0.50;;
10154;SDS011;5118;48.570;7.916;2023-04-01T04:46:33;0.57;;;0.50;;
10154;SDS011;5118;48.570;7.916;2023-04-01T04:49:10;1.97;;;0.63;;
10154;SDS011;5118;48.570;7.916;2023-04-01T04:51:39;1.83;;;0.67;;
10154;SDS011;5118;48.570;7.916;2023-04-01T04:54:07;4.77;;;1.20;;
10154;SDS011;5118;48.570;7.916;2023-04-01T04:56:46;5.80;;;1.30;;
10154;SDS011;5118;48.570;7.916;2023-04-01T04:59:15;2.97;;;1.10;;
10154;SDS011;5118;48.570;7.916;2023-04-01T05:02:11;5.07;;;1.90;;
10154;SDS011;5118;48.570;7.916;2023-04-01T05:04:39;4.70;;;1.50;;
10154;SDS011;5118;48.570;7.916;2023-04-01T05:07:09;5.03;;;1.40;;
10154;SDS011;5118;48.570;7.916;2023-04-01T05:09:38;5.07;;;1.50;;
10154;SDS011;5118;48.570;7.916;2023-04-01T05:12:06;2.77;;;1.10;;
10154;SDS011;5118;48.570;7.916;2023-04-01T05:15:07;3.33;;;1.10;;
10154;SDS011;5118;48.570;7.916;2023-04-01T05:17:38;3.37;;;1.23;;
10154;SDS011;5118;48.570;7.916;2023-04-01T05:20:08;4.77;;;1.20;;
10154;SDS011;5118;48.570;7.916;2023-04-01T05:22:39;3.57;;;1.17;;
10154;SDS011;5118;48.570;7.916;2023-04-01T05:25:08;2.63;;;0.93;;
10154;SDS011;5118;48.570;7.916;2023-04-01T05:27:36;3.60;;;1.10;;
10154;SDS011;5118;48.570;7.916;2023-04-01T05:30:05;4.03;;;2.67;;
10154;SDS011;5118;48.570;7.916;2023-04-01T05:32:44;2.77;;;2.27;;
10154;SDS011;5118;48.570;7.916;2023-04-01T05:35:12;1.70;;;1.50;;
10154;SDS011;5118;48.570;7.916;2023-04-01T05:37:40;3.23;;;1.40;;
10154;SDS011;5118;48.570;7.916;2023-04-01T05:40:09;2.00;;;1.13;;
10154;SDS011;5118;48.570;7.916;2023-04-01T05:42:38;5.83;;;1.43;;
10154;SDS011;5118;48.570;7.916;2023-04-01T05:45:07;2.63;;;1.27;;
10154;SDS011;5118;48.570;7.916;2023-04-01T05:47:52;2.93;;;1.20;;
10154;SDS011;5118;48.570;7.916;2023-04-01T05:50:21;3.00;;;1.10;;
10154;SDS011;5118;48.570;7.916;2023-04-01T05:52:50;3.23;;;1.63;;
10154;SDS011;5118;48.570;7.916;2023-04-01T05:55:18;4.07;;;1.87;;
10154;SDS011;5118;48.570;7.916;2023-04-01T05:57:49;5.67;;;1.77;;
10154;SDS011;5118;48.570;7.916;2023-04-01T06:00:17;2.80;;;1.67;;
10154;SDS011;5118;48.570;7.916;2023-04-01T06:02:47;4.20;;;1.50;;
10154;SDS011;5118;48.570;7.916;2023-04-01T06:05:18;3.77;;;1.60;;
10154;SDS011;5118;48.570;7.916;2023-04-01T06:07:48;5.13;;;1.60;;
10154;SDS011;5118;48.570;7.916;2023-04-01T06:10:23;4.27;;;1.70;;
10154;SDS011;5118;48.570;7.916;2023-04-01T06:13:04;5.67;;;1.90;;
10154;SDS011;5118;48.570;7.916;2023-04-01T06:15:38;5.10;;;1.53;;
10154;SDS011;5118;48.570;7.916;2023-04-01T06:21:25;7.53;;;1.70;;
10154;SDS011;5118;48.570;7.916;2023-04-01T06:24:08;5.27;;;1.70;;
10154;SDS011;5118;48.570;7.916;2023-04-01T06:26:49;5.57;;;1.87;;
10154;SDS011;5118;48.570;7.916;2023-04-01T06:35:36;5.80;;;2.03;;
10154;SDS011;5118;48.570;7.916;2023-04-01T06:38:31;6.10;;;1.60;;
10154;SDS011;5118;48.570;7.916;2023-04-01T06:41:27;5.67;;;2.00;;
10154;SDS011;5118;48.570;7.916;2023-04-01T06:44:10;3.07;;;1.50;;
10154;SDS011;5118;48.570;7.916;2023-04-01T06:47:17;5.37;;;2.00;;
10154;SDS011;5118;48.570;7.916;2023-04-01T06:50:19;5.03;;;2.07;;
10154;SDS011;5118;48.570;7.916;2023-04-01T06:53:12;3.93;;;1.63;;
10154;SDS011;5118;48.570;7.916;2023-04-01T06:56:06;7.17;;;2.00;;
10154;SDS011;5118;48.570;7.916;2023-04-01T06:59:17;3.70;;;1.60;;
10154;SDS011;5118;48.570;7.916;2023-04-01T07:01:49;5.07;;;2.70;;
10154;SDS011;5118;48.570;7.916;2023-04-01T07:04:21;5.90;;;2.00;;
10154;SDS011;5118;48.570;7.916;2023-04-01T07:06:54;6.90;;;1.93;;
10154;SDS011;5118;48.570;7.916;2023-04-01T07:09:26;5.43;;;1.90;;
10154;SDS011;5118;48.570;7.916;2023-04-01T07:12:21;6.73;;;2.10;;
10154;SDS011;5118;48.570;7.916;2023-04-01T07:15:20;6.67;;;2.07;;
10154;SDS011;5118;48.570;7.916;2023-04-01T07:17:53;6.20;;;1.93;;
10154;SDS011;5118;48.570;7.916;2023-04-01T07:20:25;6.00;;;1.90;;
10154;SDS011;5118;48.570;7.916;2023-04-01T07:22:58;4.17;;;1.87;;
10154;SDS011;5118;48.570;7.916;2023-04-01T07:25:55;4.57;;;1.60;;
10154;SDS011;5118;48.570;7.916;2023-04-01T07:28:30;4.47;;;1.70;;
10154;SDS011;5118;48.570;7.916;2023-04-01T07:31:18;4.47;;;1.63;;
10154;SDS011;5118;48.570;7.916;2023-04-01T07:33:58;2.97;;;1.80;;
10154;SDS011;5118;48.570;7.916;2023-04-01T07:36:37;4.53;;;1.70;;
10154;SDS011;5118;48.570;7.916;2023-04-01T07:39:13;4.43;;;1.70;;
10154;SDS011;5118;48.570;7.916;2023-04-01T07:42:15;8.83;;;1.87;;
10154;SDS011;5118;48.570;7.916;2023-04-01T07:44:54;4.57;;;1.50;;
10154;SDS011;5118;48.570;7.916;2023-04-01T07:47:33;4.77;;;1.80;;
10154;SDS011;5118;48.570;7.916;2023-04-01T07:50:16;5.23;;;1.90;;
10154;SDS011;5118;48.570;7.916;2023-04-01T07:52:51;4.37;;;1.57;;
10154;SDS011;5118;48.570;7.916;2023-04-01T07:55:30;6.93;;;2.07;;
10154;SDS011;5118;48.570;7.916;2023-04-01T07:58:08;5.43;;;1.80;;
10154;SDS011;5118;48.570;7.916;2023-04-01T08:00:48;4.53;;;2.30;;
10154;SDS011;5118;48.570;7.916;2023-04-01T08:03:33;5.13;;;1.77;;
10154;SDS011;5118;48.570;7.916;2023-04-01T08:06:11;5.50;;;1.97;;
10154;SDS011;5118;48.570;7.916;2023-04-01T08:08:47;7.03;;;2.23;;
10154;SDS011;5118;48.570;7.916;2023-04-01T08:11:36;5.30;;;1.87;;
10154;SDS011;5118;48.570;7.916;2023-04-01T08:14:36;8.63;;;2.23;;
10154;SDS011;5118;48.570;7.916;2023-04-01T08:17:34;8.30;;;2.40;;
10154;SDS011;5118;48.570;7.916;2023-04-01T08:20:18;2.90;;;1.70;;
10154;SDS011;5118;48.570;7.916;2023-04-01T08:22:57;5.07;;;1.83;;
10154;SDS011;5118;48.570;7.916;2023-04-01T08:25:33;6.43;;;2.10;;
10154;SDS011;5118;48.570;7.916;2023-04-01T08:28:09;4.57;;;2.03;;
10154;SDS011;5118;48.570;7.916;2023-04-01T08:30:42;5.77;;;1.83;;
10154;SDS011;5118;48.570;7.916;2023-04-01T08:33:19;4.33;;;2.03;;
10154;SDS011;5118;48.570;7.916;2023-04-01T08:35:59;2.83;;;1.57;;
10154;SDS011;5118;48.570;7.916;2023-04-01T08:38:34;4.17;;;1.80;;
10154;SDS011;5118;48.570;7.916;2023-04-01T08:44:55;4.23;;;1.90;;
10154;SDS011;5118;48.570;7.916;2023-04-01T08:51:05;4.63;;;1.80;;
10154;SDS011;5118;48.570;7.916;2023-04-01T08:53:59;2.90;;;1.57;;
10154;SDS011;5118;48.570;7.916;2023-04-01T08:56:50;4.30;;;1.57;;
10154;SDS011;5118;48.570;7.916;2023-04-01T08:59:40;5.10;;;2.07;;
10154;SDS011;5118;48.570;7.916;2023-04-01T09:03:12;3.27;;;1.63;;
10154;SDS011;5118;48.570;7.916;2023-04-01T09:06:14;3.70;;;1.80;;
10154;SDS011;5118;48.570;7.916;2023-04-01T09:09:10;2.90;;;1.80;;
10154;SDS011;5118;48.570;7.916;2023-04-01T09:12:14;2.33;;;1.60;;
10154;SDS011;5118;48.570;7.916;2023-04-01T09:15:05;4.27;;;1.63;;
10154;SDS011;5118;48.570;7.916;2023-04-01T09:21:02;3.83;;;1.50;;
10154;SDS011;5118;48.570;7.916;2023-04-01T09:26:56;1.70;;;1.60;;
10154;SDS011;5118;48.570;7.916;2023-04-01T09:32:58;5.53;;;2.60;;
10154;SDS011;5118;48.570;7.916;2023-04-01T09:35:54;3.30;;;2.30;;
10154;SDS011;5118;48.570;7.916;2023-04-01T09:38:35;3.23;;;2.17;;
10154;SDS011;5118;48.570;7.916;2023-04-01T09:41:14;6.13;;;2.37;;
10154;SDS011;5118;48.570;7.916;2023-04-01T09:44:18;4.00;;;2.47;;
10154;SDS011;5118;48.570;7.916;2023-04-01T09:47:08;1.80;;;1.70;;
10154;SDS011;5118;48.570;7.916;2023-04-01T09:49:50;3.37;;;1.83;;
10154;SDS011;5118;48.570;7.916;2023-04-01T09:52:34;2.13;;;1.83;;
10154;SDS011;5118;48.570;7.916;2023-04-01T09:55:32;3.13;;;1.97;;
10154;SDS011;5118;48.570;7.916;2023-04-01T09:58:46;2.90;;;2.20;;
10154;SDS011;5118;48.570;7.916;2023-04-01T10:05:23;3.83;;;2.23;;
10154;SDS011;5118;48.570;7.916;2023-04-01T10:08:25;4.47;;;1.90;;
10154;SDS011;5118;48.570;7.916;2023-04-01T10:11:37;3.40;;;1.87;;
10154;SDS011;5118;48.570;7.916;2023-04-01T10:14:41;4.53;;;2.10;;
10154;SDS011;5118;48.570;7.916;2023-04-01T10:17:44;3.43;;;1.70;;
10154;SDS011;5118;48.570;7.916;2023-04-01T10:23:40;3.87;;;2.00;;
10154;SDS011;5118;48.570;7.916;2023-04-01T10:30:04;3.93;;;2.57;;
10154;SDS011;5118;48.570;7.916;2023-04-01T10:36:37;3.43;;;1.60;;
10154;SDS011;5118;48.570;7.916;2023-04-01T10:39:27;6.23;;;1.90;;
10154;SDS011;5118;48.570;7.916;2023-04-01T10:42:38;4.30;;;2.00;;
10154;SDS011;5118;48.570;7.916;2023-04-01T10:45:55;2.93;;;1.40;;
10154;SDS011;5118;48.570;7.916;2023-04-01T10:52:07;3.13;;;2.00;;
10154;SDS011;5118;48.570;7.916;2023-04-01T10:58:37;3.03;;;2.10;;
10154;SDS011;5118;48.570;7.916;2023-04-01T11:11:57;4.47;;;1.70;;
10154;SDS011;5118;48.570;7.916;2023-04-01T11:14:52;2.90;;;2.20;;
10154;SDS011;5118;48.570;7.916;2023-04-01T11:24:08;1.77;;;1.50;;
10154;SDS011;5118;48.570;7.916;2023-04-01T11:27:14;1.00;;;0.90;;
10154;SDS011;5118;48.570;7.916;2023-04-01T11:32:50;1.47;;;1.37;;
10154;SDS011;5118;48.570;7.916;2023-04-01T11:35:25;1.70;;;1.43;;
10154;SDS011;5118;48.570;7.916;2023-04-01T11:38:28;3.87;;;3.33;;
10154;SDS011;5118;48.570;7.916;2023-04-01T11:41:30;3.00;;;2.40;;
10154;SDS011;5118;48.570;7.916;2023-04-01T11:44:38;1.77;;;1.67;;
10154;SDS011;5118;48.570;7.916;2023-04-01T11:47:28;1.70;;;1.60;;
10154;SDS011;5118;48.570;7.916;2023-04-01T11:50:18;1.53;;;1.43;;
10154;SDS011;5118;48.570;7.916;2023-04-01T11:52:55;1.40;;;1.30;;
10154;SDS011;5118;48.570;7.916;2023-04-01T11:55:35;1.00;;;1.00;;
10154;SDS011;5118;48.570;7.916;2023-04-01T11:58:22;1.20;;;1.10;;
10154;SDS011;5118;48.570;7.916;2023-04-01T12:01:06;2.00;;;1.80;;
10154;SDS011;5118;48.570;7.916;2023-04-01T12:03:54;1.83;;;1.10;;
10154;SDS011;5118;48.570;7.916;2023-04-01T12:06:41;1.10;;;1.00;;
10154;SDS011;5118;48.570;7.916;2023-04-01T12:09:18;1.20;;;1.10;;
10154;SDS011;5118;48.570;7.916;2023-04-01T12:11:57;1.00;;;1.00;;
10154;SDS011;5118;48.570;7.916;2023-04-01T12:14:39;0.90;;;0.90;;
10154;SDS011;5118;48.570;7.916;2023-04-01T12:17:21;0.80;;;0.80;;
10154;SDS011;5118;48.570;7.916;2023-04-01T12:20:01;1.70;;;1.60;;
10154;SDS011;5118;48.570;7.916;2023-04-01T12:22:49;4.43;;;4.03;;
10154;SDS011;5118;48.570;7.916;2023-04-01T12:25:47;2.57;;;2.37;;
10154;SDS011;5118;48.570;7.916;2023-04-01T12:28:37;1.50;;;1.40;;
10154;SDS011;5118;48.570;7.916;2023-04-01T12:31:19;1.10;;;1.10;;
10154;SDS011;5118;48.570;7.916;2023-04-01T12:36:57;1.70;;;1.60;;
10154;SDS011;5118;48.570;7.916;2023-04-01T12:39:43;4.50;;;1.10;;
10154;SDS011;5118;48.570;7.916;2023-04-01T12:42:23;2.60;;;1.13;;
10154;SDS011;5118;48.570;7.916;2023-04-01T12:45:11;1.83;;;1.20;;
10154;SDS011;5118;48.570;7.916;2023-04-01T12:47:52;1.50;;;1.40;;
10154;SDS011;5118;48.570;7.916;2023-04-01T12:50:40;2.27;;;1.70;;
10154;SDS011;5118;48.570;7.916;2023-04-01T12:56:17;1.77;;;0.90;;
10154;SDS011;5118;48.570;7.916;2023-04-01T12:59:00;0.93;;;0.90;;
10154;SDS011;5118;48.570;7.916;2023-04-01T13:01:50;8.07;;;5.90;;
10154;SDS011;5118;48.570;7.916;2023-04-01T13:04:40;2.50;;;2.30;;
10154;SDS011;5118;48.570;7.916;2023-04-01T13:07:33;1.63;;;1.53;;
10154;SDS011;5118;48.570;7.916;2023-04-01T13:10:18;2.10;;;1.30;;
10154;SDS011;5118;48.570;7.916;2023-04-01T13:13:00;1.80;;;1.70;;
10154;SDS011;5118;48.570;7.916;2023-04-01T13:15:43;1.13;;;1.03;;
10154;SDS011;5118;48.570;7.916;2023-04-01T13:18:20;1.10;;;1.00;;
10154;SDS011;5118;48.570;7.916;2023-04-01T13:20:58;2.33;;;1.10;;
10154;SDS011;5118;48.570;7.916;2023-04-01T13:23:35;1.20;;;1.17;;
10154;SDS011;5118;48.570;7.916;2023-04-01T13:26:22;1.30;;;1.00;;
10154;SDS011;5118;48.570;7.916;2023-04-01T13:28:59;0.90;;;0.90;;
10154;SDS011;5118;48.570;7.916;2023-04-01T13:31:36;0.90;;;0.90;;
10154;SDS011;5118;48.570;7.916;2023-04-01T13:34:17;2.10;;;0.77;;
10154;SDS011;5118;48.570;7.916;2023-04-01T13:36:57;0.93;;;0.90;;
10154;SDS011;5118;48.570;7.916;2023-04-01T13:39:39;0.53;;;0.53;;
10154;SDS011;5118;48.570;7.916;2023-04-01T13:42:18;0.70;;;0.70;;
10154;SDS011;5118;48.570;7.916;2023-04-01T13:44:53;0.90;;;0.90;;
10154;SDS011;5118;48.570;7.916;2023-04-01T13:47:34;0.60;;;0.60;;
10154;SDS011;5118;48.570;7.916;2023-04-01T13:50:23;1.00;;;0.90;;
10154;SDS011;5118;48.570;7.916;2023-04-01T13:56:03;0.80;;;0.80;;
10154;SDS011;5118;48.570;7.916;2023-04-01T13:58:48;0.60;;;0.60;;
10154;SDS011;5118;48.570;7.916;2023-04-01T14:01:25;2.70;;;1.53;;
10154;SDS011;5118;48.570;7.916;2023-04-01T14:04:09;3.87;;;3.20;;
10154;SDS011;5118;48.570;7.916;2023-04-01T14:07:06;6.63;;;4.53;;
10154;SDS011;5118;48.570;7.916;2023-04-01T14:09:48;2.43;;;2.07;;
10154;SDS011;5118;48.570;7.916;2023-04-01T14:12:29;1.50;;;1.40;;
10154;SDS011;5118;48.570;7.916;2023-04-01T14:15:05;2.37;;;1.77;;
10154;SDS011;5118;48.570;7.916;2023-04-01T14:17:50;2.13;;;1.20;;
10154;SDS011;5118;48.570;7.916;2023-04-01T14:20:37;1.30;;;1.20;;
10154;SDS011;5118;48.570;7.916;2023-04-01T14:23:13;7.10;;;1.50;;
10154;SDS011;5118;48.570;7.916;2023-04-01T14:26:18;1.50;;;1.40;;
10154;SDS011;5118;48.570;7.916;2023-04-01T14:29:02;2.23;;;1.53;;
10154;SDS011;5118;48.570;7.916;2023-04-01T14:31:46;3.53;;;1.73;;
10154;SDS011;5118;48.570;7.916;2023-04-01T14:34:26;1.57;;;1.40;;
10154;SDS011;5118;48.570;7.916;2023-04-01T14:37:16;2.10;;;1.90;;
10154;SDS011;5118;48.570;7.916;2023-04-01T14:40:19;7.33;;;3.93;;
10154;SDS011;5118;48.570;7.916;2023-04-01T14:43:10;13.10;;;9.90;;
10154;SDS011;5118;48.570;7.916;2023-04-01T14:46:02;1.67;;;1.57;;
10154;SDS011;5118;48.570;7.916;2023-04-01T14:48:55;2.90;;;2.40;;
10154;SDS011;5118;48.570;7.916;2023-04-01T14:51:29;3.17;;;2.10;;
10154;SDS011;5118;48.570;7.916;2023-04-01T14:54:02;2.13;;;1.70;;
10154;SDS011;5118;48.570;7.916;2023-04-01T14:56:37;1.23;;;1.10;;
10154;SDS011;5118;48.570;7.916;2023-04-01T14:59:09;1.47;;;1.37;;
10154;SDS011;5118;48.570;7.916;2023-04-01T15:01:44;1.47;;;1.27;;
10154;SDS011;5118;48.570;7.916;2023-04-01T15:07:21;1.50;;;1.40;;
10154;SDS011;5118;48.570;7.916;2023-04-01T15:10:12;2.10;;;1.60;;
10154;SDS011;5118;48.570;7.916;2023-04-01T15:12:52;2.20;;;2.00;;
10154;SDS011;5118;48.570;7.916;2023-04-01T15:15:44;3.20;;;2.73;;
10154;SDS011;5118;48.570;7.916;2023-04-01T15:18:25;4.83;;;3.70;;
10154;SDS011;5118;48.570;7.916;2023-04-01T15:21:11;1.70;;;1.40;;
10154;SDS011;5118;48.570;7.916;2023-04-01T15:23:55;1.30;;;1.20;;
10154;SDS011;5118;48.570;7.916;2023-04-01T15:29:32;1.30;;;1.20;;
10154;SDS011;5118;48.570;7.916;2023-04-01T15:32:16;1.93;;;1.20;;
10154;SDS011;5118;48.570;7.916;2023-04-01T15:34:49;2.07;;;1.10;;
10154;SDS011;5118;48.570;7.916;2023-04-01T15:37:29;2.33;;;1.20;;
10154;SDS011;5118;48.570;7.916;2023-04-01T15:40:08;1.80;;;1.40;;
10154;SDS011;5118;48.570;7.916;2023-04-01T15:42:51;2.37;;;1.83;;
10154;SDS011;5118;48.570;7.916;2023-04-01T15:45:37;2.03;;;1.83;;
10154;SDS011;5118;48.570;7.916;2023-04-01T15:48:16;3.17;;;1.70;;
10154;SDS011;5118;48.570;7.916;2023-04-01T15:50:55;1.50;;;1.40;;
10154;SDS011;5118;48.570;7.916;2023-04-01T15:53:52;2.20;;;1.77;;
10154;SDS011;5118;48.570;7.916;2023-04-01T15:56:41;1.40;;;1.30;;
10154;SDS011;5118;48.570;7.916;2023-04-01T15:59:22;2.20;;;1.40;;
10154;SDS011;5118;48.570;7.916;2023-04-01T16:02:07;1.53;;;1.40;;
10154;SDS011;5118;48.570;7.916;2023-04-01T16:04:46;2.60;;;1.67;;
10154;SDS011;5118;48.570;7.916;2023-04-01T16:07:25;1.80;;;1.70;;
10154;SDS011;5118;48.570;7.916;2023-04-01T16:10:17;4.97;;;3.57;;
10154;SDS011;5118;48.570;7.916;2023-04-01T16:13:02;2.97;;;2.50;;
10154;SDS011;5118;48.570;7.916;2023-04-01T16:15:47;2.40;;;2.10;;
10154;SDS011;5118;48.570;7.916;2023-04-01T16:18:26;2.67;;;1.70;;
10154;SDS011;5118;48.570;7.916;2023-04-01T16:21:05;1.90;;;1.70;;
10154;SDS011;5118;48.570;7.916;2023-04-01T16:23:37;1.83;;;1.40;;
10154;SDS011;5118;48.570;7.916;2023-04-01T16:26:15;2.00;;;1.60;;
10154;SDS011;5118;48.570;7.916;2023-04-01T16:28:53;2.00;;;1.20;;
10154;SDS011;5118;48.570;7.916;2023-04-01T16:31:30;1.90;;;1.40;;
10154;SDS011;5118;48.570;7.916;2023-04-01T16:34:04;1.97;;;1.23;;
10154;SDS011;5118;48.570;7.916;2023-04-01T16:36:40;2.10;;;1.33;;
10154;SDS011;5118;48.570;7.916;2023-04-01T16:39:18;1.33;;;1.10;;
10154;SDS011;5118;48.570;7.916;2023-04-01T16:42:06;3.70;;;1.87;;
10154;SDS011;5118;48.570;7.916;2023-04-01T16:44:46;1.50;;;1.40;;
10154;SDS011;5118;48.570;7.916;2023-04-01T16:47:23;2.27;;;1.60;;
10154;SDS011;5118;48.570;7.916;2023-04-01T16:49:58;1.60;;;1.50;;
10154;SDS011;5118;48.570;7.916;2023-04-01T16:52:42;1.97;;;1.57;;
10154;SDS011;5118;48.570;7.916;2023-04-01T16:55:20;0.90;;;0.90;;
10154;SDS011;5118;48.570;7.916;2023-04-01T16:57:52;0.90;;;0.73;;
10154;SDS011;5118;48.570;7.916;2023-04-01T17:00:26;2.37;;;1.40;;
10154;SDS011;5118;48.570;7.916;2023-04-01T17:02:58;2.23;;;1.40;;
10154;SDS011;5118;48.570;7.916;2023-04-01T17:05:38;2.73;;;2.27;;
10154;SDS011;5118;48.570;7.916;2023-04-01T17:08:11;3.67;;;2.00;;
10154;SDS011;5118;48.570;7.916;2023-04-01T17:10:51;2.70;;;2.10;;
10154;SDS011;5118;48.570;7.916;2023-04-01T17:13:37;10.53;;;4.60;;
10154;SDS011;5118;48.570;7.916;2023-04-01T17:19:14;6.13;;;2.50;;
10154;SDS011;5118;48.570;7.916;2023-04-01T17:21:57;2.67;;;1.90;;
10154;SDS011;5118;48.570;7.916;2023-04-01T17:24:42;7.07;;;1.83;;
10154;SDS011;5118;48.570;7.916;2023-04-01T17:27:23;7.03;;;4.10;;
10154;SDS011;5118;48.570;7.916;2023-04-01T17:30:15;8.63;;;5.53;;
10154;SDS011;5118;48.570;7.916;2023-04-01T17:33:03;7.67;;;5.27;;
10154;SDS011;5118;48.570;7.916;2023-04-01T17:35:54;7.17;;;4.67;;
10154;SDS011;5118;48.570;7.916;2023-04-01T17:38:41;7.00;;;4.37;;
10154;SDS011;5118;48.570;7.916;2023-04-01T17:41:24;4.13;;;2.90;;
10154;SDS011;5118;48.570;7.916;2023-04-01T17:44:02;5.80;;;3.97;;